createdAt,value
2022-12-28T00:02:14.920Z,15.70
2022-12-28T00:04:44.674Z,15.70
2022-12-28T00:07:12.981Z,15.70
2022-12-28T00:09:41.285Z,15.70
2022-12-28T00:12:09.656Z,15.60
2022-12-28T00:14:37.990Z,15.60
2022-12-28T00:17:06.283Z,15.60
2022-12-28T00:19:34.663Z,15.70
2022-12-28T00:22:04.449Z,15.70
2022-12-28T00:24:32.710Z,15.70
2022-12-28T00:27:01.176Z,15.70
2022-12-28T00:29:29.502Z,15.60
2022-12-28T00:31:57.844Z,15.60
2022-12-28T00:34:26.245Z,15.60
2022-12-28T00:37:09.378Z,15.60
2022-12-28T00:39:41.801Z,15.50
2022-12-28T00:42:10.254Z,15.60
2022-12-28T00:44:38.557Z,15.50
2022-12-28T00:47:06.949Z,15.50
2022-12-28T00:49:35.239Z,15.60
2022-12-28T00:52:03.543Z,15.50
2022-12-28T00:54:31.824Z,15.50
2022-12-28T00:57:01.485Z,15.50
2022-12-28T00:59:29.776Z,15.50
2022-12-28T01:01:58.156Z,15.50
2022-12-28T01:04:26.488Z,15.50
2022-12-28T01:06:54.799Z,15.50
2022-12-28T01:09:23.090Z,15.40
2022-12-28T01:11:51.411Z,15.50
2022-12-28T01:14:21.116Z,15.40
2022-12-28T01:16:49.442Z,15.40
2022-12-28T01:19:21.712Z,15.50
2022-12-28T01:21:51.274Z,15.40
2022-12-28T01:24:19.725Z,15.50
2022-12-28T01:26:48.034Z,15.50
2022-12-28T01:29:16.294Z,15.50
2022-12-28T01:31:46.370Z,15.50
2022-12-28T01:34:14.945Z,15.50
2022-12-28T01:36:43.331Z,15.50
2022-12-28T01:39:12.228Z,15.50
2022-12-28T01:41:42.473Z,15.50
2022-12-28T01:44:44.536Z,15.50
2022-12-28T01:47:17.557Z,15.50
2022-12-28T01:49:50.996Z,15.50
2022-12-28T01:52:23.550Z,15.50
2022-12-28T01:54:55.700Z,15.50
2022-12-28T01:57:27.837Z,15.50
2022-12-28T01:59:59.642Z,15.50
2022-12-28T02:02:31.190Z,15.50
2022-12-28T02:05:01.658Z,15.50
2022-12-28T02:07:37.903Z,15.50
2022-12-28T02:10:42.371Z,15.40
2022-12-28T02:12:58.022Z,15.40
2022-12-28T02:15:26.404Z,15.40
2022-12-28T02:17:56.592Z,15.40
2022-12-28T02:20:31.157Z,15.50
2022-12-28T02:23:38.089Z,15.40
2022-12-28T02:26:51.954Z,15.40
2022-12-28T02:29:42.809Z,15.40
2022-12-28T02:32:31.030Z,15.40
2022-12-28T02:35:08.314Z,15.40
2022-12-28T02:37:41.623Z,15.50
2022-12-28T02:40:14.685Z,15.50
2022-12-28T02:42:44.401Z,15.40
2022-12-28T02:48:26.077Z,15.40
2022-12-28T02:51:07.959Z,15.40
2022-12-28T02:53:58.936Z,15.40
2022-12-28T02:56:37.814Z,15.40
2022-12-28T02:59:29.444Z,15.40
2022-12-28T03:02:20.399Z,15.30
2022-12-28T03:05:12.507Z,15.40
2022-12-28T03:08:07.084Z,15.40
2022-12-28T03:10:43.893Z,15.30
2022-12-28T03:13:30.228Z,15.40
2022-12-28T03:16:05.868Z,15.40
2022-12-28T03:18:54.774Z,15.30
2022-12-28T03:21:43.449Z,15.30
2022-12-28T03:24:32.317Z,15.30
2022-12-28T03:27:21.318Z,15.30
2022-12-28T03:30:12.699Z,15.40
2022-12-28T03:32:41.120Z,15.30
2022-12-28T03:35:10.254Z,15.30
2022-12-28T03:37:44.979Z,15.30
2022-12-28T03:40:24.572Z,15.30
2022-12-28T03:43:13.703Z,15.30
2022-12-28T03:45:50.432Z,15.30
2022-12-28T03:48:19.266Z,15.30
2022-12-28T03:50:49.313Z,15.30
2022-12-28T03:53:21.355Z,15.30
2022-12-28T03:55:49.691Z,15.30
2022-12-28T03:58:18.037Z,15.30
2022-12-28T04:00:46.338Z,15.30
2022-12-28T04:03:15.018Z,15.20
2022-12-28T04:05:43.306Z,15.20
2022-12-28T04:08:11.561Z,15.30
2022-12-28T04:10:41.297Z,15.30
2022-12-28T04:13:09.741Z,15.30
2022-12-28T04:15:38.002Z,15.30
2022-12-28T04:18:06.585Z,15.20
2022-12-28T04:20:34.804Z,15.20
2022-12-28T04:23:03.087Z,15.20
2022-12-28T04:25:31.452Z,15.20
2022-12-28T04:28:01.107Z,15.20
2022-12-28T04:30:29.488Z,15.20
2022-12-28T04:32:57.846Z,15.20
2022-12-28T04:35:26.142Z,15.20
2022-12-28T04:37:54.391Z,15.20
2022-12-28T04:40:22.640Z,15.20
2022-12-28T04:42:51.072Z,15.20
2022-12-28T04:45:22.393Z,15.20
2022-12-28T04:47:50.941Z,15.20
2022-12-28T04:50:19.922Z,15.20
2022-12-28T04:52:48.174Z,15.20
2022-12-28T04:55:32.452Z,15.20
2022-12-28T04:58:02.002Z,15.10
2022-12-28T05:00:31.765Z,15.20
2022-12-28T05:03:00.687Z,15.10
2022-12-28T05:05:29.671Z,15.10
2022-12-28T05:08:01.790Z,15.10
2022-12-28T05:10:30.377Z,15.00
2022-12-28T05:12:58.767Z,15.00
2022-12-28T05:15:27.055Z,15.00
2022-12-28T05:17:57.620Z,15.00
2022-12-28T05:20:25.899Z,15.00
2022-12-28T05:22:54.211Z,15.00
2022-12-28T05:25:22.979Z,15.00
2022-12-28T05:27:51.319Z,15.00
2022-12-28T05:30:20.002Z,15.00
2022-12-28T05:32:48.239Z,15.00
2022-12-28T05:35:18.186Z,15.00
2022-12-28T05:37:46.442Z,15.00
2022-12-28T05:40:14.925Z,15.00
2022-12-28T05:42:47.972Z,15.00
2022-12-28T05:45:19.890Z,15.00
2022-12-28T05:47:48.152Z,15.00
2022-12-28T05:50:18.182Z,15.00
2022-12-28T05:52:46.558Z,15.00
2022-12-28T05:55:14.937Z,14.90
2022-12-28T05:57:43.222Z,14.90
2022-12-28T06:00:12.558Z,15.00
2022-12-28T06:02:41.020Z,14.90
2022-12-28T06:05:10.270Z,15.00
2022-12-28T06:07:39.870Z,14.90
2022-12-28T06:10:09.334Z,14.90
2022-12-28T06:12:37.597Z,15.00
2022-12-28T06:15:06.813Z,15.00
2022-12-28T06:17:35.065Z,15.00
2022-12-28T06:20:03.537Z,15.00
2022-12-28T06:22:31.853Z,15.00
2022-12-28T06:25:01.500Z,15.00
2022-12-28T06:27:29.776Z,15.00
2022-12-28T06:29:58.072Z,14.90
2022-12-28T06:32:26.385Z,15.00
2022-12-28T06:34:54.709Z,15.00
2022-12-28T06:37:23.051Z,14.90
2022-12-28T06:39:51.395Z,15.00
2022-12-28T06:42:21.051Z,15.00
2022-12-28T06:44:49.526Z,15.00
2022-12-28T06:47:17.784Z,15.00
2022-12-28T06:49:46.079Z,15.00
2022-12-28T06:52:14.383Z,15.00
2022-12-28T06:54:42.687Z,15.00
2022-12-28T06:57:10.991Z,15.00
2022-12-28T06:59:40.838Z,15.00
2022-12-28T07:02:10.769Z,15.00
2022-12-28T07:04:39.252Z,14.90
2022-12-28T07:07:09.765Z,14.90
2022-12-28T07:09:38.074Z,14.90
2022-12-28T07:12:06.891Z,14.90
2022-12-28T07:14:35.229Z,15.00
2022-12-28T07:17:04.885Z,14.90
2022-12-28T07:19:33.150Z,15.00
2022-12-28T07:22:01.493Z,14.90
2022-12-28T07:24:29.793Z,14.90
2022-12-28T07:26:58.255Z,15.00
2022-12-28T07:29:26.702Z,14.90
2022-12-28T07:31:54.961Z,15.00
2022-12-28T07:34:24.805Z,14.90
2022-12-28T07:36:53.096Z,14.90
2022-12-28T07:39:21.381Z,14.90
2022-12-28T07:41:49.737Z,14.90
2022-12-28T07:44:17.993Z,15.00
2022-12-28T07:46:46.340Z,15.00
2022-12-28T07:49:14.586Z,14.90
2022-12-28T07:51:44.222Z,15.00
2022-12-28T07:54:12.475Z,15.00
2022-12-28T07:59:08.232Z,15.00
2022-12-28T08:01:37.941Z,15.00
2022-12-28T08:04:08.039Z,15.00
2022-12-28T08:06:37.815Z,15.00
2022-12-28T08:09:08.694Z,15.00
2022-12-28T08:11:38.684Z,15.00
2022-12-28T08:14:08.251Z,15.10
2022-12-28T08:16:38.448Z,15.10
2022-12-28T08:19:07.499Z,15.10
2022-12-28T08:21:38.043Z,15.10
2022-12-28T08:24:08.991Z,15.10
2022-12-28T08:26:39.934Z,15.10
2022-12-28T08:29:10.301Z,15.10
2022-12-28T08:31:40.724Z,15.10
2022-12-28T08:34:12.294Z,15.10
2022-12-28T08:36:40.692Z,15.10
2022-12-28T08:39:10.424Z,15.10
2022-12-28T08:41:39.016Z,15.10
2022-12-28T08:44:07.758Z,15.10
2022-12-28T08:46:37.815Z,15.20
2022-12-28T08:49:06.979Z,15.20
2022-12-28T08:51:36.870Z,15.10
2022-12-28T08:54:05.475Z,15.20
2022-12-28T08:56:36.999Z,15.20
2022-12-28T08:59:05.977Z,15.20
2022-12-28T09:01:42.472Z,15.20
2022-12-28T09:04:15.925Z,15.20
2022-12-28T09:06:44.366Z,15.20
2022-12-28T09:09:14.763Z,15.20
2022-12-28T09:11:44.815Z,15.20
2022-12-28T09:14:22.525Z,15.30
2022-12-28T09:16:51.623Z,15.30
2022-12-28T09:19:20.195Z,15.30
2022-12-28T09:21:49.445Z,15.30
2022-12-28T09:24:17.938Z,15.30
2022-12-28T09:26:47.666Z,15.30
2022-12-28T09:29:16.638Z,15.30
2022-12-28T09:31:44.981Z,15.40
2022-12-28T09:37:03.143Z,15.40
2022-12-28T09:39:31.974Z,15.50
2022-12-28T09:42:05.241Z,15.50
2022-12-28T09:44:56.097Z,15.50
2022-12-28T09:47:29.700Z,15.50
2022-12-28T09:50:06.364Z,15.40
2022-12-28T09:52:37.785Z,15.40
2022-12-28T09:55:12.590Z,15.40
2022-12-28T09:57:47.000Z,15.50
2022-12-28T10:00:20.905Z,15.50
2022-12-28T10:02:53.501Z,15.40
2022-12-28T10:05:22.915Z,15.40
2022-12-28T10:07:52.874Z,15.50
2022-12-28T10:10:23.661Z,15.40
2022-12-28T10:12:54.415Z,15.50
2022-12-28T10:15:24.465Z,15.40
2022-12-28T10:17:52.914Z,15.40
2022-12-28T10:20:23.503Z,15.50
2022-12-28T10:22:55.250Z,15.50
2022-12-28T10:25:25.609Z,15.50
2022-12-28T10:27:56.144Z,15.50
2022-12-28T10:30:27.336Z,15.50
2022-12-28T10:33:02.741Z,15.50
2022-12-28T10:35:36.957Z,15.50
2022-12-28T10:38:08.687Z,15.50
2022-12-28T10:40:40.084Z,15.50
2022-12-28T10:43:20.561Z,15.50
2022-12-28T10:45:52.732Z,15.50
2022-12-28T10:48:26.432Z,15.50
2022-12-28T10:50:57.319Z,15.50
2022-12-28T10:53:28.890Z,15.50
2022-12-28T10:56:21.616Z,15.50
2022-12-28T10:58:53.077Z,15.50
2022-12-28T11:01:27.576Z,15.50
2022-12-28T11:04:02.859Z,15.50
2022-12-28T11:06:32.344Z,15.60
2022-12-28T11:09:19.415Z,15.60
2022-12-28T11:11:49.579Z,15.60
2022-12-28T11:14:29.349Z,15.60
2022-12-28T11:16:57.891Z,15.60
2022-12-28T11:19:26.965Z,15.60
2022-12-28T11:21:55.275Z,15.60
2022-12-28T11:24:27.191Z,15.60
2022-12-28T11:26:55.610Z,15.60
2022-12-28T11:29:25.536Z,15.70
2022-12-28T11:32:02.557Z,15.80
2022-12-28T11:34:32.540Z,15.90
2022-12-28T11:37:01.287Z,15.90
2022-12-28T11:39:45.472Z,15.90
2022-12-28T11:42:39.991Z,15.90
2022-12-28T11:45:15.584Z,16.00
2022-12-28T11:47:45.860Z,16.00
2022-12-28T11:50:50.916Z,16.00
2022-12-28T11:53:24.651Z,16.00
2022-12-28T11:56:04.510Z,16.00
2022-12-28T11:59:04.818Z,16.00
2022-12-28T12:01:44.999Z,16.00
2022-12-28T12:04:42.246Z,16.00
2022-12-28T12:07:19.752Z,16.00
2022-12-28T12:09:49.950Z,16.00
2022-12-28T12:12:47.686Z,16.00
2022-12-28T12:15:20.639Z,16.00
2022-12-28T12:17:54.174Z,16.00
2022-12-28T12:20:35.521Z,16.20
2022-12-28T12:23:09.296Z,16.20
2022-12-28T12:25:41.213Z,16.20
2022-12-28T12:28:18.037Z,16.30
2022-12-28T12:30:47.372Z,16.30
2022-12-28T12:33:25.771Z,16.30
2022-12-28T12:36:03.901Z,16.40
2022-12-28T12:38:47.550Z,16.50
2022-12-28T12:41:27.149Z,16.50
2022-12-28T12:44:13.555Z,16.60
2022-12-28T12:47:05.946Z,16.70
2022-12-28T12:50:13.067Z,16.70
2022-12-28T12:52:43.896Z,16.90
2022-12-28T12:55:24.547Z,16.90
2022-12-28T12:57:59.238Z,17.00
2022-12-28T13:00:38.578Z,17.10
2022-12-28T13:03:19.988Z,17.10
2022-12-28T13:05:54.099Z,17.10
2022-12-28T13:08:26.658Z,17.20
2022-12-28T13:10:56.318Z,17.20
2022-12-28T13:13:32.013Z,17.20
2022-12-28T13:16:04.435Z,17.20
2022-12-28T13:18:48.580Z,17.20
2022-12-28T13:21:22.275Z,17.20
2022-12-28T13:23:52.197Z,17.20
2022-12-28T13:26:26.685Z,17.30
2022-12-28T13:28:59.180Z,17.30
2022-12-28T13:31:34.884Z,17.30
2022-12-28T13:34:04.908Z,17.30
2022-12-28T13:36:34.539Z,17.30
2022-12-28T13:39:15.983Z,17.30
2022-12-28T13:41:50.438Z,17.30
2022-12-28T13:44:31.835Z,17.30
2022-12-28T13:47:05.765Z,17.40
2022-12-28T13:49:37.905Z,17.30
2022-12-28T13:52:13.185Z,17.30
2022-12-28T13:54:45.532Z,17.30
2022-12-28T13:57:45.199Z,17.30
2022-12-28T14:00:05.447Z,17.30
2022-12-28T14:02:35.634Z,17.20
2022-12-28T14:05:04.790Z,17.30
2022-12-28T14:07:38.071Z,17.20
2022-12-28T14:10:07.534Z,17.30
2022-12-28T14:12:35.994Z,17.20
2022-12-28T14:15:05.520Z,17.30
2022-12-28T14:17:34.105Z,17.30
2022-12-28T14:20:02.431Z,17.30
2022-12-28T14:22:33.990Z,17.30
2022-12-28T14:25:07.831Z,17.30
2022-12-28T14:27:39.450Z,17.20
2022-12-28T14:30:22.252Z,17.30
2022-12-28T14:32:50.838Z,17.30
2022-12-28T14:35:21.749Z,17.30
2022-12-28T14:37:54.358Z,17.30
2022-12-28T14:40:33.228Z,17.30
2022-12-28T14:43:06.726Z,17.30
2022-12-28T14:48:37.741Z,17.30
2022-12-28T14:51:24.139Z,17.30
2022-12-28T14:54:16.913Z,17.30
2022-12-28T14:56:51.190Z,17.30
2022-12-28T14:59:25.498Z,17.30
2022-12-28T15:01:53.841Z,17.20
2022-12-28T15:04:35.052Z,17.20
2022-12-28T15:07:03.645Z,17.20
2022-12-28T15:09:32.095Z,17.20
2022-12-28T15:12:13.829Z,17.10
2022-12-28T15:14:42.605Z,17.10
2022-12-28T15:17:11.711Z,17.10
2022-12-28T15:19:40.070Z,17.10
2022-12-28T15:22:08.399Z,17.10
2022-12-28T15:24:36.727Z,17.00
2022-12-28T15:27:06.695Z,17.00
2022-12-28T15:32:24.635Z,17.00
2022-12-28T15:34:52.887Z,16.90
2022-12-28T15:37:21.155Z,16.90
2022-12-28T15:39:49.786Z,16.90
2022-12-28T15:42:18.269Z,16.90
2022-12-28T15:44:48.750Z,16.90
2022-12-28T15:47:18.057Z,16.80
2022-12-28T15:49:46.370Z,16.80
2022-12-28T15:52:14.803Z,16.80
2022-12-28T15:54:47.232Z,16.80
2022-12-28T15:57:16.034Z,16.80
2022-12-28T15:59:44.443Z,16.80
2022-12-28T16:02:14.593Z,16.70
2022-12-28T16:04:43.129Z,16.70
2022-12-28T16:07:11.473Z,16.70
2022-12-28T16:09:39.762Z,16.60
2022-12-28T16:12:08.348Z,16.60
2022-12-28T16:14:36.670Z,16.60
2022-12-28T16:17:05.061Z,16.60
2022-12-28T16:19:34.851Z,16.50
2022-12-28T16:22:03.301Z,16.60
2022-12-28T16:24:31.673Z,16.60
2022-12-28T16:26:59.998Z,16.50
2022-12-28T16:29:28.428Z,16.50
2022-12-28T16:31:59.238Z,16.50
2022-12-28T16:34:29.002Z,16.40
2022-12-28T16:36:59.694Z,16.40
2022-12-28T16:39:29.753Z,16.40
2022-12-28T16:41:58.518Z,16.40
2022-12-28T16:44:29.552Z,16.40
2022-12-28T16:46:59.635Z,16.30
2022-12-28T16:49:29.680Z,16.30
2022-12-28T16:52:00.036Z,16.30
2022-12-28T16:54:29.061Z,16.30
2022-12-28T16:56:57.656Z,16.30
2022-12-28T16:59:28.215Z,16.30
2022-12-28T17:01:57.978Z,16.30
2022-12-28T17:04:26.438Z,16.30
2022-12-28T17:06:55.082Z,16.30
2022-12-28T17:09:24.783Z,16.30
2022-12-28T17:11:53.051Z,16.30
2022-12-28T17:14:36.550Z,16.30
2022-12-28T17:17:06.415Z,16.30
2022-12-28T17:19:35.042Z,16.30
2022-12-28T17:22:04.139Z,16.20
2022-12-28T17:24:34.023Z,16.20
2022-12-28T17:27:08.222Z,16.20
2022-12-28T17:29:37.335Z,16.20
2022-12-28T17:32:06.160Z,16.20
2022-12-28T17:34:34.814Z,16.20
2022-12-28T17:37:03.064Z,16.20
2022-12-28T17:39:37.641Z,16.20
2022-12-28T17:42:10.394Z,16.20
2022-12-28T17:44:39.004Z,16.20
2022-12-28T17:47:07.330Z,16.20
2022-12-28T17:49:35.617Z,16.20
2022-12-28T17:52:04.144Z,16.20
2022-12-28T17:54:32.921Z,16.10
2022-12-28T17:57:01.329Z,16.20
2022-12-28T17:59:31.196Z,16.10
2022-12-28T18:02:01.628Z,16.10
2022-12-28T18:04:30.176Z,16.10
2022-12-28T18:06:59.112Z,16.10
2022-12-28T18:09:28.089Z,16.10
2022-12-28T18:11:56.893Z,16.10
2022-12-28T18:14:25.223Z,16.10
2022-12-28T18:16:55.218Z,16.10
2022-12-28T18:19:23.621Z,16.10
2022-12-28T18:21:51.933Z,16.10
2022-12-28T18:24:21.179Z,16.00
2022-12-28T18:26:49.977Z,16.00
2022-12-28T18:29:18.258Z,16.10
2022-12-28T18:31:46.702Z,16.00
2022-12-28T18:34:16.435Z,16.00
2022-12-28T18:36:44.757Z,16.00
2022-12-28T18:39:13.259Z,16.00
2022-12-28T18:41:41.563Z,16.00
2022-12-28T18:44:10.440Z,16.00
2022-12-28T18:46:38.876Z,16.00
2022-12-28T18:49:07.249Z,16.00
2022-12-28T18:51:37.224Z,16.00
2022-12-28T18:54:06.015Z,16.00
2022-12-28T18:56:34.295Z,16.00
2022-12-28T18:59:02.610Z,16.00
2022-12-28T19:04:19.662Z,16.00
2022-12-28T19:06:49.527Z,16.00
2022-12-28T19:09:18.331Z,16.00
2022-12-28T19:11:46.611Z,15.90
2022-12-28T19:14:16.948Z,15.90
2022-12-28T19:16:45.391Z,15.90
2022-12-28T19:19:13.748Z,15.90
2022-12-28T19:21:43.223Z,15.90
2022-12-28T19:24:15.523Z,15.90
2022-12-28T19:26:44.381Z,15.90
2022-12-28T19:29:13.177Z,15.90
2022-12-28T19:31:41.470Z,15.90
2022-12-28T19:34:09.977Z,15.90
2022-12-28T19:36:38.338Z,15.90
2022-12-28T19:39:06.879Z,15.90
2022-12-28T19:41:36.734Z,15.90
2022-12-28T19:44:05.387Z,15.80
2022-12-28T19:46:33.934Z,15.90
2022-12-28T19:49:04.110Z,15.80
2022-12-28T19:51:33.371Z,15.80
2022-12-28T19:54:01.770Z,15.80
2022-12-28T19:56:30.262Z,15.80
2022-12-28T19:59:05.909Z,15.80
2022-12-28T20:01:36.050Z,15.80
2022-12-28T20:04:12.372Z,15.80
2022-12-28T20:06:43.377Z,15.80
2022-12-28T20:09:13.007Z,15.80
2022-12-28T20:11:41.893Z,15.70
2022-12-28T20:14:14.174Z,15.80
2022-12-28T20:16:42.896Z,15.80
2022-12-28T20:19:12.286Z,15.80
2022-12-28T20:21:42.565Z,15.80
2022-12-28T20:24:13.307Z,15.80
2022-12-28T20:26:41.643Z,15.80
2022-12-28T20:29:11.286Z,15.80
2022-12-28T20:31:39.614Z,15.80
2022-12-28T20:34:07.861Z,15.80
2022-12-28T20:36:36.167Z,15.80
2022-12-28T20:39:05.030Z,15.80
2022-12-28T20:41:51.582Z,15.80
2022-12-28T20:44:25.895Z,15.80
2022-12-28T20:46:54.555Z,15.80
2022-12-28T20:49:23.632Z,15.80
2022-12-28T20:51:55.092Z,15.80
2022-12-28T20:54:23.757Z,15.80
2022-12-28T20:56:55.252Z,15.80
2022-12-28T20:59:26.763Z,15.80
2022-12-28T21:01:55.327Z,15.80
2022-12-28T21:04:25.124Z,15.80
2022-12-28T21:06:53.965Z,15.80
2022-12-28T21:09:22.514Z,15.80
2022-12-28T21:11:50.827Z,15.80
2022-12-28T21:14:19.309Z,15.80
2022-12-28T21:16:49.518Z,15.80
2022-12-28T21:19:17.976Z,15.80
2022-12-28T21:21:48.441Z,15.80
2022-12-28T21:24:16.747Z,15.80
2022-12-28T21:26:45.305Z,15.80
2022-12-28T21:29:13.594Z,15.80
2022-12-28T21:31:41.939Z,15.80
2022-12-28T21:34:11.677Z,15.80
2022-12-28T21:36:39.945Z,15.80
2022-12-28T21:39:08.287Z,15.80
2022-12-28T21:41:50.509Z,15.80
2022-12-28T21:44:20.814Z,15.80
2022-12-28T21:46:51.995Z,15.80
2022-12-28T21:49:22.121Z,15.80
2022-12-28T21:51:50.472Z,15.70
2022-12-28T21:54:20.205Z,15.70
2022-12-28T21:56:52.079Z,15.80
2022-12-28T21:59:21.142Z,15.80
2022-12-28T22:02:06.200Z,15.80
2022-12-28T22:04:58.494Z,15.80
2022-12-28T22:07:30.539Z,15.80
2022-12-28T22:10:16.464Z,15.70
2022-12-28T22:12:44.813Z,15.80
2022-12-28T22:15:33.025Z,15.70
2022-12-28T22:18:03.434Z,15.70
2022-12-28T22:20:34.985Z,15.70
2022-12-28T22:23:03.521Z,15.70
2022-12-28T22:25:32.245Z,15.70
2022-12-28T22:28:01.662Z,15.70
2022-12-28T22:30:30.259Z,15.70
2022-12-28T22:32:58.738Z,15.70
2022-12-28T22:35:27.364Z,15.60
2022-12-28T22:37:57.019Z,15.60
2022-12-28T22:40:25.748Z,15.60
2022-12-28T22:42:54.351Z,15.70
2022-12-28T22:45:24.367Z,15.60
2022-12-28T22:47:55.345Z,15.60
2022-12-28T22:50:23.531Z,15.60
2022-12-28T22:52:51.835Z,15.60
2022-12-28T22:55:21.625Z,15.60
2022-12-28T22:57:49.916Z,15.60
2022-12-28T23:00:18.794Z,15.60
2022-12-28T23:02:47.350Z,15.60
2022-12-28T23:05:15.856Z,15.60
2022-12-28T23:07:44.161Z,15.60
2022-12-28T23:10:12.522Z,15.60
2022-12-28T23:12:42.226Z,15.60
2022-12-28T23:15:19.787Z,15.60
2022-12-28T23:17:49.391Z,15.60
2022-12-28T23:20:36.156Z,15.60
2022-12-28T23:23:22.168Z,15.50
2022-12-28T23:26:08.237Z,15.50
2022-12-28T23:28:37.930Z,15.50
2022-12-28T23:31:06.529Z,15.60
2022-12-28T23:33:36.742Z,15.60
2022-12-28T23:36:05.781Z,15.50
2022-12-28T23:38:34.424Z,15.50
2022-12-28T23:41:24.744Z,15.50
2022-12-28T23:43:54.636Z,15.50
2022-12-28T23:46:22.959Z,15.50
2022-12-28T23:48:51.357Z,15.50
2022-12-28T23:51:19.706Z,15.60
2022-12-28T23:53:48.079Z,15.50
2022-12-28T23:56:16.348Z,15.50
2022-12-28T23:58:44.649Z,15.60
